Time;durP1;ratioP1;P1;durP2;ratioP2;P2;SDS_P1;SDS_P2;PMS_P1;PMS_P2;Temp;Humidity;BMP_temperature;BMP_pressure;BME280_temperature;BME280_humidity;BME280_pressure;Samples;Min_cycle;Max_cycle;Signal;HPM_P1;HPM_P2
2024/01/02 00:01:05;;;;;;;;;;;8.20;90.80;;;;;;4999877;28;86903;-49
2024/01/02 00:03:31;;;;;;;;;;;8.20;90.80;;;;;;4999886;28;87407;-48
2024/01/02 00:05:57;;;;;;;;;;;8.20;90.70;;;;;;5002674;28;87198;-50
2024/01/02 00:08:22;;;;;;;;;;;8.20;90.70;;;;;;4996081;28;87342;-51
2024/01/02 00:10:48;;;;;;;;;;;8.20;90.70;;;;;;5003370;28;87108;-47
2024/01/02 00:13:13;;;;;;;;;;;8.20;90.80;;;;;;5000152;28;87984;-48
2024/01/02 00:15:39;;;;;;;;;;;8.20;90.90;;;;;;4996060;28;87533;-49
2024/01/02 00:18:04;;;;;;;;;;;8.20;90.80;;;;;;5004663;28;87226;-48
2024/01/02 00:20:30;;;;;;;;;;;8.20;90.90;;;;;;4994922;28;87846;-48
2024/01/02 00:22:56;;;;;;;;;;;8.20;90.90;;;;;;4997304;28;88559;-48
2024/01/02 00:25:21;;;;;;;;;;;8.20;90.80;;;;;;4999515;28;87008;-48
2024/01/02 00:27:47;;;;;;;;;;;8.20;90.80;;;;;;5001644;28;87162;-48
2024/01/02 00:30:13;;;;;;;;;;;8.20;90.80;;;;;;4998807;28;87121;-50
2024/01/02 00:32:38;;;;;;;;;;;8.20;90.80;;;;;;4996145;28;87766;-49
2024/01/02 00:35:05;;;;;;;;;;;8.10;90.80;;;;;;4994820;28;88400;-48
2024/01/02 00:37:31;;;;;;;;;;;8.20;90.70;;;;;;4999272;28;86560;-49
2024/01/02 00:39:56;;;;;;;;;;;8.20;90.70;;;;;;4996356;28;86918;-49
2024/01/02 00:42:22;;;;;;;;;;;8.20;90.90;;;;;;5000073;28;87461;-48
2024/01/02 00:44:47;;;;;;;;;;;8.20;90.80;;;;;;4995799;28;88042;-49
2024/01/02 00:47:13;;;;;;;;;;;8.20;90.80;;;;;;4997900;28;87811;-50
2024/01/02 00:49:39;;;;;;;;;;;8.20;90.80;;;;;;4997993;28;87731;-48
2024/01/02 00:52:04;;;;;;;;;;;8.20;90.80;;;;;;4999251;28;87864;-48
2024/01/02 00:54:30;;;;;;;;;;;8.20;90.80;;;;;;4997339;28;88476;-49
2024/01/02 00:56:55;;;;;;;;;;;8.20;90.80;;;;;;4994399;28;86957;-49
2024/01/02 00:59:21;;;;;;;;;;;8.20;90.80;;;;;;4998368;28;87198;-50
2024/01/02 01:01:46;;;;;;;;;;;8.10;90.70;;;;;;4995473;28;86618;-49
2024/01/02 01:04:12;;;;;;;;;;;8.20;90.80;;;;;;4995271;28;87039;-48
2024/01/02 01:06:37;;;;;;;;;;;8.20;90.70;;;;;;4996166;28;87867;-48
2024/01/02 01:09:03;;;;;;;;;;;8.20;90.70;;;;;;4997061;28;88331;-52
2024/01/02 01:11:29;;;;;;;;;;;8.20;90.70;;;;;;4998203;28;88244;-49
2024/01/02 01:13:54;;;;;;;;;;;8.20;90.70;;;;;;4996051;28;87408;-49
2024/01/02 01:16:20;;;;;;;;;;;8.10;90.70;;;;;;4995738;28;86964;-48
2024/01/02 01:18:45;;;;;;;;;;;8.20;90.70;;;;;;4996863;28;86955;-50
2024/01/02 01:21:11;;;;;;;;;;;8.20;90.70;;;;;;5002579;28;90430;-49
2024/01/02 01:23:36;;;;;;;;;;;8.10;90.70;;;;;;4997408;28;86996;-49
2024/01/02 01:26:02;;;;;;;;;;;8.20;90.70;;;;;;4997146;28;86628;-49
2024/01/02 01:28:29;;;;;;;;;;;8.20;90.70;;;;;;4996443;28;88938;-48
2024/01/02 01:30:54;;;;;;;;;;;8.10;90.60;;;;;;4999820;28;86981;-47
2024/01/02 01:33:20;;;;;;;;;;;8.20;90.90;;;;;;5000284;28;88526;-48
2024/01/02 01:35:45;;;;;;;;;;;8.10;90.70;;;;;;4996234;28;87059;-51
2024/01/02 01:38:11;;;;;;;;;;;8.20;90.70;;;;;;4997069;28;87826;-51
2024/01/02 01:40:36;;;;;;;;;;;8.20;90.70;;;;;;4996001;28;87480;-50
2024/01/02 01:43:02;;;;;;;;;;;8.20;90.70;;;;;;4998284;28;87415;-49
2024/01/02 01:45:28;;;;;;;;;;;8.20;90.70;;;;;;4999529;28;87610;-47
2024/01/02 01:47:53;;;;;;;;;;;8.10;90.70;;;;;;4992509;28;87641;-48
2024/01/02 01:50:19;;;;;;;;;;;8.10;90.60;;;;;;4996901;28;86156;-48
2024/01/02 01:52:45;;;;;;;;;;;8.10;90.60;;;;;;4999510;28;86939;-48
2024/01/02 01:55:11;;;;;;;;;;;8.20;90.60;;;;;;4996015;28;87066;-48
2024/01/02 01:57:36;;;;;;;;;;;8.20;90.60;;;;;;4997631;28;88005;-49
2024/01/02 02:00:04;;;;;;;;;;;8.20;90.60;;;;;;4994062;28;86965;-48
2024/01/02 02:02:31;;;;;;;;;;;8.20;90.60;;;;;;5000438;28;87047;-48
2024/01/02 02:04:57;;;;;;;;;;;8.10;90.60;;;;;;5001368;28;86877;-48
2024/01/02 02:07:23;;;;;;;;;;;8.10;90.60;;;;;;4998710;28;88470;-49
2024/01/02 02:09:49;;;;;;;;;;;8.20;90.60;;;;;;5000471;28;87162;-48
2024/01/02 02:12:15;;;;;;;;;;;8.20;90.60;;;;;;5001072;28;86948;-50
2024/01/02 02:14:40;;;;;;;;;;;8.10;90.50;;;;;;5002019;28;86512;-48
2024/01/02 02:17:06;;;;;;;;;;;8.10;90.50;;;;;;5000415;28;86587;-48
2024/01/02 02:19:31;;;;;;;;;;;8.10;90.50;;;;;;4997702;28;87270;-48
2024/01/02 02:21:59;;;;;;;;;;;8.10;90.50;;;;;;5006627;28;88439;-48
2024/01/02 02:24:25;;;;;;;;;;;8.10;90.50;;;;;;4998979;28;87724;-51
2024/01/02 02:26:54;;;;;;;;;;;8.20;90.50;;;;;;5000169;28;87414;-49
2024/01/02 02:29:20;;;;;;;;;;;8.10;90.50;;;;;;5000471;28;87142;-50
2024/01/02 02:31:45;;;;;;;;;;;8.10;90.50;;;;;;4998296;28;86897;-50
2024/01/02 02:34:11;;;;;;;;;;;8.10;90.50;;;;;;5000595;28;87521;-48
2024/01/02 02:36:36;;;;;;;;;;;8.10;90.50;;;;;;5001402;28;86830;-52
2024/01/02 02:39:02;;;;;;;;;;;8.10;90.50;;;;;;5000828;28;86718;-48
2024/01/02 02:41:27;;;;;;;;;;;8.10;90.50;;;;;;5001153;28;87003;-47
2024/01/02 02:43:53;;;;;;;;;;;8.10;90.50;;;;;;4998607;28;87011;-48
2024/01/02 02:46:19;;;;;;;;;;;8.10;90.50;;;;;;5001924;28;88350;-48
2024/01/02 02:48:44;;;;;;;;;;;8.10;90.50;;;;;;5004333;28;86877;-48
2024/01/02 02:51:10;;;;;;;;;;;8.10;90.50;;;;;;5001866;28;86967;-49
2024/01/02 02:53:36;;;;;;;;;;;8.10;90.50;;;;;;4997596;28;87614;-49
2024/01/02 02:56:01;;;;;;;;;;;8.10;90.50;;;;;;5003107;28;87017;-47
2024/01/02 02:58:27;;;;;;;;;;;8.10;90.50;;;;;;5001246;28;87244;-50
2024/01/02 03:00:52;;;;;;;;;;;8.10;90.50;;;;;;5000850;28;87056;-49
2024/01/02 03:03:18;;;;;;;;;;;8.10;90.50;;;;;;4996293;28;86198;-50
2024/01/02 03:05:43;;;;;;;;;;;8.20;90.50;;;;;;4996210;28;88508;-48
2024/01/02 03:08:09;;;;;;;;;;;8.10;90.40;;;;;;4999493;28;87016;-50
2024/01/02 03:10:35;;;;;;;;;;;8.10;90.50;;;;;;4999861;28;87988;-49
2024/01/02 03:13:00;;;;;;;;;;;8.10;90.40;;;;;;5002213;28;87455;-49
2024/01/02 03:15:26;;;;;;;;;;;8.10;90.70;;;;;;4997972;28;87083;-48
2024/01/02 03:17:51;;;;;;;;;;;8.20;90.40;;;;;;4997612;28;87929;-49
2024/01/02 03:20:17;;;;;;;;;;;8.10;90.40;;;;;;4998345;28;86926;-50
2024/01/02 03:22:42;;;;;;;;;;;8.10;90.40;;;;;;4997607;28;87067;-48
2024/01/02 03:25:08;;;;;;;;;;;8.10;90.40;;;;;;4996293;28;87769;-48
2024/01/02 03:27:34;;;;;;;;;;;8.10;90.30;;;;;;4998923;28;86255;-52
2024/01/02 03:29:59;;;;;;;;;;;8.10;90.30;;;;;;4995542;28;87064;-49
2024/01/02 03:32:25;;;;;;;;;;;8.10;90.30;;;;;;4998526;28;87397;-49
2024/01/02 03:34:51;;;;;;;;;;;8.10;90.30;;;;;;4993956;28;87960;-49
2024/01/02 03:37:16;;;;;;;;;;;8.10;90.30;;;;;;4999723;28;88703;-49
2024/01/02 03:39:42;;;;;;;;;;;8.10;90.30;;;;;;5002606;28;87411;-48
2024/01/02 03:42:08;;;;;;;;;;;8.10;90.30;;;;;;4997855;28;88007;-48
2024/01/02 03:44:33;;;;;;;;;;;8.10;90.30;;;;;;4997218;28;87481;-48
2024/01/02 03:46:59;;;;;;;;;;;8.10;90.30;;;;;;4998110;28;87096;-48
2024/01/02 03:49:25;;;;;;;;;;;8.10;90.30;;;;;;4999881;28;87844;-48
2024/01/02 03:51:51;;;;;;;;;;;8.10;90.30;;;;;;4998425;28;86776;-51
2024/01/02 03:54:16;;;;;;;;;;;8.10;90.30;;;;;;4998151;28;87018;-49
2024/01/02 03:56:42;;;;;;;;;;;8.10;90.30;;;;;;4998335;28;87428;-48
2024/01/02 03:59:07;;;;;;;;;;;8.10;90.30;;;;;;4997242;28;88444;-48
2024/01/02 04:01:41;;;;;;;;;;;8.10;90.30;;;;;;4999141;28;87205;-47
2024/01/02 04:04:06;;;;;;;;;;;8.10;90.20;;;;;;4995928;28;87391;-49
2024/01/02 04:06:32;;;;;;;;;;;8.10;90.20;;;;;;4999292;28;87015;-48
2024/01/02 04:08:58;;;;;;;;;;;8.10;90.20;;;;;;5006338;28;89866;-48
2024/01/02 04:11:23;;;;;;;;;;;8.10;90.20;;;;;;4997785;28;86876;-49
2024/01/02 04:13:49;;;;;;;;;;;8.10;90.20;;;;;;4997777;28;86948;-49
2024/01/02 04:16:14;;;;;;;;;;;8.10;90.20;;;;;;4999130;28;87337;-48
2024/01/02 04:18:41;;;;;;;;;;;8.10;90.20;;;;;;4991730;28;86820;-49
2024/01/02 04:21:06;;;;;;;;;;;8.10;90.20;;;;;;4998475;28;86969;-48
2024/01/02 04:23:32;;;;;;;;;;;8.00;90.20;;;;;;4999220;28;87866;-48
2024/01/02 04:25:57;;;;;;;;;;;8.10;90.20;;;;;;4997801;28;86988;-47
2024/01/02 04:28:23;;;;;;;;;;;8.10;90.20;;;;;;4998455;28;87038;-49
2024/01/02 04:30:49;;;;;;;;;;;8.10;90.20;;;;;;4998236;28;87974;-47
2024/01/02 04:33:14;;;;;;;;;;;8.10;90.20;;;;;;4999936;28;87271;-52
2024/01/02 04:35:40;;;;;;;;;;;8.10;90.20;;;;;;4993863;28;87118;-49
2024/01/02 04:38:05;;;;;;;;;;;8.10;90.10;;;;;;5001802;28;87757;-47
2024/01/02 04:40:31;;;;;;;;;;;8.00;90.10;;;;;;4997584;28;86257;-47
2024/01/02 04:42:56;;;;;;;;;;;8.00;90.10;;;;;;4998285;28;87477;-49
2024/01/02 04:45:22;;;;;;;;;;;8.00;90.10;;;;;;5001326;28;87410;-48
2024/01/02 04:47:47;;;;;;;;;;;8.10;90.20;;;;;;4995553;28;87808;-49
2024/01/02 04:50:13;;;;;;;;;;;8.00;90.10;;;;;;4998570;28;87518;-49
2024/01/02 04:52:39;;;;;;;;;;;8.10;90.10;;;;;;4999043;28;86836;-48
2024/01/02 04:55:04;;;;;;;;;;;8.00;90.10;;;;;;4999014;28;87023;-48
2024/01/02 04:57:30;;;;;;;;;;;8.10;90.00;;;;;;4996289;28;87475;-49
2024/01/02 04:59:55;;;;;;;;;;;8.00;90.10;;;;;;4995737;28;87136;-49
2024/01/02 05:02:23;;;;;;;;;;;8.00;90.10;;;;;;4997596;28;86916;-50
2024/01/02 05:04:49;;;;;;;;;;;8.00;90.10;;;;;;4999786;28;86641;-48
2024/01/02 05:07:15;;;;;;;;;;;8.00;90.10;;;;;;4997847;28;87611;-48
2024/01/02 05:09:40;;;;;;;;;;;8.00;90.10;;;;;;4994267;28;87437;-48
2024/01/02 05:12:06;;;;;;;;;;;8.00;90.00;;;;;;4998033;28;88071;-49
2024/01/02 05:14:32;;;;;;;;;;;8.00;90.00;;;;;;5000402;28;87506;-48
2024/01/02 05:16:58;;;;;;;;;;;8.00;90.00;;;;;;5000860;28;87848;-49
2024/01/02 05:19:23;;;;;;;;;;;8.00;90.10;;;;;;4999924;28;86991;-48
2024/01/02 05:21:51;;;;;;;;;;;8.00;89.90;;;;;;4994819;28;86949;-49
2024/01/02 05:24:16;;;;;;;;;;;8.00;90.00;;;;;;4999579;28;88563;-50
2024/01/02 05:26:42;;;;;;;;;;;8.00;89.90;;;;;;5001984;28;86959;-49
2024/01/02 05:29:07;;;;;;;;;;;8.00;89.90;;;;;;4998614;28;86646;-49
2024/01/02 05:31:33;;;;;;;;;;;8.00;89.90;;;;;;4996448;28;87019;-50
2024/01/02 05:33:58;;;;;;;;;;;8.00;89.90;;;;;;4999838;28;87837;-48
2024/01/02 05:36:24;;;;;;;;;;;8.00;89.80;;;;;;4997437;28;88367;-49
2024/01/02 05:38:50;;;;;;;;;;;8.00;89.90;;;;;;4996027;28;86947;-48
2024/01/02 05:41:15;;;;;;;;;;;8.00;89.80;;;;;;4998076;28;86996;-48
2024/01/02 05:43:41;;;;;;;;;;;8.00;89.80;;;;;;4998170;28;87604;-50
2024/01/02 05:46:06;;;;;;;;;;;8.00;89.70;;;;;;4994698;28;86974;-49
2024/01/02 05:48:32;;;;;;;;;;;8.00;89.80;;;;;;4995515;28;87372;-48
2024/01/02 05:50:57;;;;;;;;;;;8.00;89.70;;;;;;4993935;28;86857;-48
2024/01/02 05:53:23;;;;;;;;;;;8.00;89.60;;;;;;4994804;28;86701;-48
2024/01/02 05:55:49;;;;;;;;;;;8.00;89.80;;;;;;4994183;28;88637;-49
2024/01/02 05:58:14;;;;;;;;;;;8.00;89.70;;;;;;4999431;28;87093;-47
2024/01/02 06:00:40;;;;;;;;;;;8.00;89.60;;;;;;4995184;28;87775;-48
2024/01/02 06:03:05;;;;;;;;;;;8.00;89.50;;;;;;4995893;28;87412;-47
2024/01/02 06:05:31;;;;;;;;;;;8.00;89.60;;;;;;4998357;28;87591;-49
2024/01/02 06:07:57;;;;;;;;;;;7.90;89.80;;;;;;4996473;28;86870;-49
2024/01/02 06:10:22;;;;;;;;;;;7.90;89.60;;;;;;4998572;28;88561;-49
2024/01/02 06:12:48;;;;;;;;;;;8.00;89.60;;;;;;4996671;28;86765;-48
2024/01/02 06:15:14;;;;;;;;;;;8.00;89.50;;;;;;4993918;28;87538;-49
2024/01/02 06:17:40;;;;;;;;;;;8.00;89.40;;;;;;4997811;28;86544;-48
2024/01/02 06:20:06;;;;;;;;;;;7.90;89.40;;;;;;4991945;28;86787;-48
2024/01/02 06:22:31;;;;;;;;;;;7.90;89.30;;;;;;4995226;28;87616;-48
2024/01/02 06:24:57;;;;;;;;;;;7.90;89.30;;;;;;4994133;28;87973;-50
2024/01/02 06:27:22;;;;;;;;;;;7.90;89.40;;;;;;4996173;28;89149;-50
2024/01/02 06:29:48;;;;;;;;;;;7.90;89.30;;;;;;4995887;28;87864;-48
2024/01/02 06:32:14;;;;;;;;;;;7.90;89.30;;;;;;5001174;28;87030;-48
2024/01/02 06:34:39;;;;;;;;;;;7.90;89.60;;;;;;4995628;28;88409;-49
2024/01/02 06:37:05;;;;;;;;;;;7.90;89.30;;;;;;4995912;28;87095;-48
2024/01/02 06:39:31;;;;;;;;;;;7.90;89.20;;;;;;4995463;28;87595;-48
2024/01/02 06:41:56;;;;;;;;;;;7.90;89.30;;;;;;4994072;28;86894;-49
2024/01/02 06:44:22;;;;;;;;;;;7.90;89.30;;;;;;4994081;28;87125;-49
2024/01/02 06:46:47;;;;;;;;;;;7.90;89.00;;;;;;4994204;28;86902;-48
2024/01/02 06:49:13;;;;;;;;;;;7.90;89.20;;;;;;4999339;28;88338;-48
2024/01/02 06:51:38;;;;;;;;;;;7.90;89.30;;;;;;5000955;28;87180;-48
2024/01/02 06:54:04;;;;;;;;;;;7.90;89.30;;;;;;5003212;28;87070;-48
2024/01/02 06:56:29;;;;;;;;;;;7.90;89.30;;;;;;5008436;28;87094;-48
2024/01/02 06:58:55;;;;;;;;;;;7.90;89.60;;;;;;4998746;28;87026;-49
2024/01/02 07:01:21;;;;;;;;;;;7.90;89.30;;;;;;4998839;28;89089;-49
2024/01/02 07:03:47;;;;;;;;;;;7.90;89.30;;;;;;4997229;28;86980;-48
2024/01/02 07:06:12;;;;;;;;;;;7.90;89.30;;;;;;5010623;28;87044;-50
2024/01/02 07:08:38;;;;;;;;;;;7.90;89.20;;;;;;4997301;28;87421;-49
2024/01/02 07:11:22;;;;;;;;;;;7.90;89.20;;;;;;4997365;28;86966;-48
2024/01/02 07:13:48;;;;;;;;;;;7.90;89.20;;;;;;4998139;28;88091;-48
2024/01/02 07:16:13;;;;;;;;;;;7.90;89.10;;;;;;5002559;28;87560;-48
2024/01/02 07:18:39;;;;;;;;;;;7.80;89.20;;;;;;4997085;28;87122;-49
2024/01/02 07:21:04;;;;;;;;;;;7.90;89.30;;;;;;5001048;28;88342;-49
2024/01/02 07:23:30;;;;;;;;;;;7.80;89.10;;;;;;5004234;28;87210;-49
2024/01/02 07:25:55;;;;;;;;;;;7.80;89.10;;;;;;5002066;28;87275;-50
2024/01/02 07:28:21;;;;;;;;;;;7.90;89.20;;;;;;4998837;28;88742;-49
2024/01/02 07:30:48;;;;;;;;;;;7.80;89.20;;;;;;5001016;28;86334;-48
2024/01/02 07:33:14;;;;;;;;;;;7.80;89.30;;;;;;5000654;28;87434;-48
2024/01/02 07:35:40;;;;;;;;;;;7.80;89.10;;;;;;5001965;28;87679;-49
2024/01/02 07:38:05;;;;;;;;;;;7.80;89.20;;;;;;4996024;28;88375;-49
2024/01/02 07:40:31;;;;;;;;;;;7.80;89.20;;;;;;4996786;28;87412;-49
2024/01/02 07:42:56;;;;;;;;;;;7.80;89.30;;;;;;5000772;28;87115;-48
2024/01/02 07:45:22;;;;;;;;;;;7.80;89.50;;;;;;5003650;28;87044;-49
2024/01/02 07:47:47;;;;;;;;;;;7.80;89.30;;;;;;4997127;28;88127;-48
2024/01/02 07:50:13;;;;;;;;;;;7.80;89.00;;;;;;4996707;28;87145;-50
2024/01/02 07:52:39;;;;;;;;;;;7.80;89.20;;;;;;5002474;28;87784;-51
2024/01/02 07:55:04;;;;;;;;;;;7.80;89.00;;;;;;4997736;28;87821;-48
2024/01/02 07:57:30;;;;;;;;;;;7.80;89.20;;;;;;5002882;28;87057;-49
2024/01/02 07:59:55;;;;;;;;;;;7.80;89.20;;;;;;4997799;28;87399;-49
2024/01/02 08:02:21;;;;;;;;;;;7.80;89.00;;;;;;4999372;28;87995;-49
2024/01/02 08:04:47;;;;;;;;;;;7.80;89.30;;;;;;4997639;28;87603;-48
2024/01/02 08:07:12;;;;;;;;;;;7.80;89.20;;;;;;4995307;28;88690;-48
2024/01/02 08:09:38;;;;;;;;;;;7.80;89.40;;;;;;4997019;28;87596;-49
2024/01/02 08:12:03;;;;;;;;;;;7.70;89.00;;;;;;4999257;28;87618;-47
2024/01/02 08:14:29;;;;;;;;;;;7.70;89.00;;;;;;4997206;28;88747;-50
2024/01/02 08:16:55;;;;;;;;;;;7.80;89.30;;;;;;5003895;28;87845;-49
2024/01/02 08:19:20;;;;;;;;;;;7.70;89.00;;;;;;4997975;28;87750;-48
2024/01/02 08:21:46;;;;;;;;;;;7.80;89.20;;;;;;4996780;28;88389;-50
2024/01/02 08:24:12;;;;;;;;;;;7.80;89.20;;;;;;4998668;28;87053;-47
2024/01/02 08:26:37;;;;;;;;;;;7.70;89.00;;;;;;4994691;28;88319;-49
2024/01/02 08:29:03;;;;;;;;;;;7.80;89.20;;;;;;4998216;28;87047;-50
2024/01/02 08:31:29;;;;;;;;;;;7.70;89.40;;;;;;4998394;28;87924;-48
2024/01/02 08:33:55;;;;;;;;;;;7.80;89.30;;;;;;4997591;28;87260;-49
2024/01/02 08:36:21;;;;;;;;;;;7.70;89.20;;;;;;4995269;28;87643;-49
2024/01/02 08:38:46;;;;;;;;;;;7.80;89.20;;;;;;4998009;28;87068;-49
2024/01/02 08:41:12;;;;;;;;;;;7.70;89.10;;;;;;5001261;28;88824;-51
2024/01/02 08:43:37;;;;;;;;;;;7.70;89.20;;;;;;4994488;28;86762;-49
2024/01/02 08:46:03;;;;;;;;;;;7.70;89.20;;;;;;4994222;28;87373;-49
2024/01/02 08:48:29;;;;;;;;;;;7.80;89.00;;;;;;4993132;28;87018;-49
2024/01/02 08:50:54;;;;;;;;;;;7.80;89.20;;;;;;4999208;28;88129;-48
2024/01/02 08:53:20;;;;;;;;;;;7.70;89.10;;;;;;4994793;28;88309;-49
2024/01/02 08:55:45;;;;;;;;;;;7.80;89.10;;;;;;4998262;28;87090;-50
2024/01/02 08:58:12;;;;;;;;;;;7.80;89.20;;;;;;4997335;28;87802;-51
2024/01/02 09:00:37;;;;;;;;;;;7.70;89.00;;;;;;4997417;28;88637;-50
2024/01/02 09:03:03;;;;;;;;;;;7.70;89.30;;;;;;4997706;28;87005;-48
2024/01/02 09:05:29;;;;;;;;;;;7.70;89.30;;;;;;4998350;28;87665;-49
2024/01/02 09:07:55;;;;;;;;;;;7.70;89.20;;;;;;4994770;28;86611;-48
2024/01/02 09:10:23;;;;;;;;;;;7.70;89.10;;;;;;5000582;28;87190;-49
2024/01/02 09:12:49;;;;;;;;;;;7.70;89.20;;;;;;4994537;28;87585;-50
2024/01/02 09:15:15;;;;;;;;;;;7.80;89.40;;;;;;4998606;28;88006;-48
2024/01/02 09:17:41;;;;;;;;;;;7.70;89.20;;;;;;4997109;28;87775;-50
2024/01/02 09:20:06;;;;;;;;;;;7.80;89.20;;;;;;4999376;28;88860;-50
2024/01/02 09:22:32;;;;;;;;;;;7.70;89.30;;;;;;5004095;28;86951;-49
2024/01/02 09:25:00;;;;;;;;;;;7.70;89.20;;;;;;5000343;28;87518;-48
2024/01/02 09:27:29;;;;;;;;;;;7.70;89.20;;;;;;4994360;28;86969;-51
2024/01/02 09:29:55;;;;;;;;;;;7.70;89.20;;;;;;4996347;28;87194;-49
2024/01/02 09:32:21;;;;;;;;;;;7.70;89.20;;;;;;4994556;28;86752;-49
2024/01/02 09:34:47;;;;;;;;;;;7.70;89.30;;;;;;4994650;28;87272;-50
2024/01/02 09:37:13;;;;;;;;;;;7.70;89.30;;;;;;4993178;28;86977;-51
2024/01/02 09:39:38;;;;;;;;;;;7.70;89.10;;;;;;4995663;28;88418;-49
2024/01/02 09:42:04;;;;;;;;;;;7.70;89.30;;;;;;4996195;28;87073;-49
2024/01/02 09:44:32;;;;;;;;;;;7.70;89.40;;;;;;5000769;28;87714;-49
2024/01/02 09:46:58;;;;;;;;;;;7.70;89.20;;;;;;5001396;28;87085;-48
2024/01/02 09:49:27;;;;;;;;;;;7.70;89.20;;;;;;4994737;28;86927;-50
2024/01/02 09:51:55;;;;;;;;;;;7.70;89.20;;;;;;4995932;28;88674;-48
2024/01/02 09:54:36;;;;;;;;;;;7.70;89.20;;;;;;4994677;28;86951;-49
2024/01/02 09:57:10;;;;;;;;;;;7.70;89.20;;;;;;4999654;28;87287;-48
2024/01/02 09:59:42;;;;;;;;;;;7.70;89.40;;;;;;4995619;28;87455;-49
2024/01/02 10:02:13;;;;;;;;;;;7.70;89.30;;;;;;4999024;28;86721;-48
2024/01/02 10:04:47;;;;;;;;;;;7.70;89.20;;;;;;4991911;28;87856;-48
2024/01/02 10:07:32;;;;;;;;;;;7.70;89.40;;;;;;4998019;28;87705;-48
2024/01/02 10:10:17;;;;;;;;;;;7.70;89.20;;;;;;4998230;28;86930;-50
2024/01/02 10:12:56;;;;;;;;;;;7.70;89.30;;;;;;4996506;28;88695;-48
2024/01/02 10:15:28;;;;;;;;;;;7.70;89.20;;;;;;5000552;28;87018;-49
2024/01/02 10:18:18;;;;;;;;;;;7.70;89.20;;;;;;4995353;28;86749;-50
2024/01/02 10:20:48;;;;;;;;;;;7.70;89.20;;;;;;4997071;28;87634;-49
2024/01/02 10:23:32;;;;;;;;;;;7.70;89.20;;;;;;4993939;28;87840;-49
2024/01/02 10:26:03;;;;;;;;;;;7.70;89.30;;;;;;5001924;28;87080;-48
2024/01/02 10:28:28;;;;;;;;;;;7.80;89.20;;;;;;5000476;28;87672;-48
2024/01/02 10:31:04;;;;;;;;;;;7.70;89.30;;;;;;5002273;28;88036;-49
2024/01/02 10:33:31;;;;;;;;;;;7.70;89.30;;;;;;5003213;28;88502;-49
2024/01/02 10:36:04;;;;;;;;;;;7.70;89.30;;;;;;5001416;28;87037;-50
2024/01/02 10:38:43;;;;;;;;;;;7.70;89.30;;;;;;5000487;28;87006;-50
2024/01/02 10:41:08;;;;;;;;;;;7.70;89.30;;;;;;5002823;28;88910;-48
2024/01/02 10:43:42;;;;;;;;;;;7.70;89.40;;;;;;4997180;28;87114;-49
2024/01/02 10:46:18;;;;;;;;;;;7.70;89.30;;;;;;5002916;28;87136;-49
2024/01/02 10:48:51;;;;;;;;;;;7.70;89.40;;;;;;4995182;28;87911;-47
2024/01/02 10:51:35;;;;;;;;;;;7.70;89.40;;;;;;4999435;28;87055;-53
2024/01/02 10:54:03;;;;;;;;;;;7.80;89.40;;;;;;5000088;28;87012;-50
2024/01/02 10:56:35;;;;;;;;;;;7.80;89.30;;;;;;5000269;28;88095;-50
2024/01/02 10:59:03;;;;;;;;;;;7.80;89.30;;;;;;4995693;28;88967;-49
2024/01/02 11:01:30;;;;;;;;;;;7.80;89.40;;;;;;5001663;28;87432;-49
2024/01/02 11:04:28;;;;;;;;;;;7.80;89.30;;;;;;4999776;28;87701;-47
2024/01/02 11:07:01;;;;;;;;;;;7.80;89.30;;;;;;4989530;28;87033;-49
2024/01/02 11:09:33;;;;;;;;;;;7.80;89.40;;;;;;5002528;28;88446;-48
2024/01/02 11:11:59;;;;;;;;;;;7.80;89.40;;;;;;5000963;28;86954;-48
2024/01/02 11:14:26;;;;;;;;;;;7.80;89.40;;;;;;5004921;28;86190;-47
2024/01/02 11:16:53;;;;;;;;;;;7.80;89.40;;;;;;4999051;28;88074;-49
2024/01/02 11:19:23;;;;;;;;;;;7.80;89.50;;;;;;5001038;28;88157;-50
2024/01/02 11:22:00;;;;;;;;;;;7.80;89.40;;;;;;4999266;28;88445;-48
2024/01/02 11:24:27;;;;;;;;;;;7.80;89.50;;;;;;5001126;28;87058;-49
2024/01/02 11:26:56;;;;;;;;;;;7.70;89.40;;;;;;4998400;28;87150;-51
2024/01/02 11:29:22;;;;;;;;;;;7.80;89.90;;;;;;4993838;28;87635;-48
2024/01/02 11:31:49;;;;;;;;;;;7.80;89.30;;;;;;4999803;28;86949;-49
2024/01/02 11:34:20;;;;;;;;;;;7.80;89.40;;;;;;5004561;28;87849;-48
2024/01/02 11:36:48;;;;;;;;;;;7.80;89.40;;;;;;4998412;28;87523;-49
2024/01/02 11:39:22;;;;;;;;;;;7.80;89.30;;;;;;4996245;28;86953;-49
2024/01/02 11:42:12;;;;;;;;;;;7.80;89.30;;;;;;4997054;28;87363;-48
2024/01/02 11:44:57;;;;;;;;;;;7.80;89.40;;;;;;4998319;28;86992;-49
2024/01/02 11:47:40;;;;;;;;;;;7.80;89.40;;;;;;4994174;28;88072;-51
2024/01/02 11:50:07;;;;;;;;;;;7.80;89.50;;;;;;4999546;28;87557;-50
2024/01/02 11:52:34;;;;;;;;;;;7.80;89.30;;;;;;5003836;28;88053;-47
2024/01/02 11:55:10;;;;;;;;;;;7.80;89.40;;;;;;4998780;28;86963;-50
2024/01/02 11:58:01;;;;;;;;;;;7.80;89.50;;;;;;4995600;28;88688;-49
2024/01/02 12:00:40;;;;;;;;;;;7.80;89.60;;;;;;4999062;28;86863;-49
2024/01/02 12:03:17;;;;;;;;;;;7.80;89.60;;;;;;4999416;28;87793;-49
2024/01/02 12:05:46;;;;;;;;;;;7.80;89.40;;;;;;4993877;28;87208;-50
2024/01/02 12:08:15;;;;;;;;;;;7.80;89.40;;;;;;4999187;28;87465;-48
2024/01/02 12:10:47;;;;;;;;;;;7.80;89.40;;;;;;5002431;28;87410;-48
2024/01/02 12:13:13;;;;;;;;;;;7.80;89.50;;;;;;4998278;28;88380;-48
2024/01/02 12:15:52;;;;;;;;;;;7.80;89.40;;;;;;4995633;28;87869;-50
2024/01/02 12:18:19;;;;;;;;;;;7.80;89.60;;;;;;4995935;28;88502;-47
2024/01/02 12:20:49;;;;;;;;;;;7.80;89.70;;;;;;4997043;28;87567;-51
2024/01/02 12:23:15;;;;;;;;;;;7.80;89.50;;;;;;4996812;28;87887;-52
2024/01/02 12:25:42;;;;;;;;;;;7.80;89.50;;;;;;4996944;28;87278;-50
2024/01/02 12:28:09;;;;;;;;;;;7.80;89.40;;;;;;4997681;28;86828;-48
2024/01/02 12:30:41;;;;;;;;;;;7.80;89.40;;;;;;4999157;28;86464;-48
2024/01/02 12:33:15;;;;;;;;;;;7.90;89.40;;;;;;4997284;28;87052;-50
2024/01/02 12:35:48;;;;;;;;;;;7.80;89.50;;;;;;5002664;28;87807;-51
2024/01/02 12:38:24;;;;;;;;;;;7.80;89.50;;;;;;4996298;28;88306;-48
2024/01/02 12:40:51;;;;;;;;;;;7.80;89.60;;;;;;4997763;28;87018;-48
2024/01/02 12:43:20;;;;;;;;;;;7.80;89.80;;;;;;4993274;28;87536;-47
2024/01/02 12:45:49;;;;;;;;;;;7.80;89.40;;;;;;5000593;28;90018;-48
2024/01/02 12:48:17;;;;;;;;;;;7.80;89.60;;;;;;5001672;28;87765;-48
2024/01/02 12:50:45;;;;;;;;;;;7.80;89.90;;;;;;4994534;28;88571;-48
2024/01/02 12:53:12;;;;;;;;;;;7.80;89.50;;;;;;4991804;28;86860;-48
2024/01/02 12:55:41;;;;;;;;;;;7.80;89.50;;;;;;4998583;28;86515;-50
2024/01/02 12:58:06;;;;;;;;;;;7.80;89.90;;;;;;4997488;28;87270;-50
2024/01/02 13:00:32;;;;;;;;;;;7.80;89.80;;;;;;4997614;28;88789;-49
2024/01/02 13:02:58;;;;;;;;;;;7.80;89.90;;;;;;4997671;28;88099;-50
2024/01/02 13:05:25;;;;;;;;;;;7.80;89.90;;;;;;4998199;28;88659;-48
2024/01/02 13:07:51;;;;;;;;;;;7.80;89.70;;;;;;4995923;28;87696;-48
2024/01/02 13:10:23;;;;;;;;;;;7.80;89.80;;;;;;4998877;28;87237;-48
2024/01/02 13:12:50;;;;;;;;;;;7.80;90.00;;;;;;4998429;28;87000;-48
2024/01/02 13:15:20;;;;;;;;;;;7.80;89.80;;;;;;5006795;28;87298;-48
2024/01/02 13:17:46;;;;;;;;;;;7.80;89.80;;;;;;4997061;28;87738;-47
2024/01/02 13:20:13;;;;;;;;;;;7.80;90.00;;;;;;4997380;28;86971;-48
2024/01/02 13:22:39;;;;;;;;;;;7.80;89.90;;;;;;5000959;28;87377;-48
2024/01/02 13:25:17;;;;;;;;;;;7.80;90.00;;;;;;4999800;28;87530;-49
2024/01/02 13:27:42;;;;;;;;;;;7.80;90.00;;;;;;4997455;28;87887;-48
2024/01/02 13:30:08;;;;;;;;;;;7.90;90.00;;;;;;4996298;28;87385;-49
2024/01/02 13:32:35;;;;;;;;;;;7.80;90.00;;;;;;4994775;28;86951;-50
2024/01/02 13:35:13;;;;;;;;;;;7.80;90.00;;;;;;4999262;28;87826;-48
2024/01/02 13:37:39;;;;;;;;;;;7.80;90.10;;;;;;4995310;28;88042;-48
2024/01/02 13:40:16;;;;;;;;;;;7.80;90.00;;;;;;4994816;28;87080;-49
2024/01/02 13:42:41;;;;;;;;;;;7.80;90.00;;;;;;4998247;28;86918;-49
2024/01/02 13:45:20;;;;;;;;;;;7.80;90.00;;;;;;4999082;28;88083;-48
2024/01/02 13:47:46;;;;;;;;;;;7.80;90.10;;;;;;4997297;28;87123;-48
2024/01/02 13:50:12;;;;;;;;;;;7.80;90.00;;;;;;4996729;28;86998;-47
2024/01/02 13:52:38;;;;;;;;;;;7.80;90.10;;;;;;4998041;28;88019;-51
2024/01/02 13:55:04;;;;;;;;;;;7.80;90.10;;;;;;4990675;28;87090;-47
2024/01/02 13:57:30;;;;;;;;;;;7.80;90.00;;;;;;4991025;28;87556;-50
2024/01/02 14:00:09;;;;;;;;;;;7.80;90.00;;;;;;5000548;28;86977;-48
2024/01/02 14:02:36;;;;;;;;;;;7.80;90.10;;;;;;5000202;28;88014;-49
2024/01/02 14:05:03;;;;;;;;;;;7.80;90.00;;;;;;4997329;28;87556;-47
2024/01/02 14:07:29;;;;;;;;;;;7.80;90.00;;;;;;5003084;28;87070;-48
2024/01/02 14:09:57;;;;;;;;;;;7.80;90.10;;;;;;4999085;28;86653;-47
2024/01/02 14:12:22;;;;;;;;;;;7.80;90.00;;;;;;5004081;28;88594;-48
2024/01/02 14:14:54;;;;;;;;;;;7.80;90.10;;;;;;4999320;28;87166;-49
2024/01/02 14:17:24;;;;;;;;;;;7.80;90.10;;;;;;4993776;28;88454;-48
2024/01/02 14:19:51;;;;;;;;;;;7.80;90.10;;;;;;4997656;28;87002;-48
2024/01/02 14:22:19;;;;;;;;;;;7.90;90.10;;;;;;4999589;28;87614;-49
2024/01/02 14:25:00;;;;;;;;;;;7.80;90.10;;;;;;5002683;28;87595;-48
2024/01/02 14:27:32;;;;;;;;;;;7.80;90.10;;;;;;5001684;28;87196;-48
2024/01/02 14:30:33;;;;;;;;;;;7.80;90.00;;;;;;4999581;28;87473;-50
2024/01/02 14:32:58;;;;;;;;;;;7.90;90.10;;;;;;4953285;28;87696;-48